Time;durP1;ratioP1;P1;durP2;ratioP2;P2;SDS_P1;SDS_P2;PMS_P1;PMS_P2;Temp;Humidity;BMP_temperature;BMP_pressure;BME280_temperature;BME280_humidity;BME280_pressure;Samples;Min_cycle;Max_cycle;Signal;HPM_P1;HPM_P2
2022/01/12 00:05:02;;;;;;;29.50;13.85;;;;;;;-0.76;60.59;99600.97;12606258;23;20025;-78
2022/01/12 00:10:23;;;;;;;28.02;15.93;;;;;;;-0.70;60.21;99603.78;12576770;23;20025;-77
2022/01/12 00:15:44;;;;;;;29.90;15.32;;;;;;;-0.70;60.09;99603.78;12596166;23;20024;-77
2022/01/12 00:21:05;;;;;;;30.98;15.82;;;;;;;-0.64;60.21;99597.19;12576640;23;20022;-75
2022/01/12 00:37:32;;;;;;;25.98;15.10;;;;;;;-0.59;60.76;99593.75;12600850;23;20149;-76
2022/01/12 00:42:53;;;;;;;31.42;15.93;;;;;;;-0.55;60.28;99607.28;12615765;23;20026;-75
2022/01/12 00:48:14;;;;;;;25.98;13.32;;;;;;;-0.62;60.36;99596.69;12576426;23;20086;-75
2022/01/12 00:53:37;;;;;;;27.42;13.60;;;;;;;-0.66;60.12;99607.13;12556490;23;20052;-75
2022/01/12 00:58:58;;;;;;;27.45;14.30;;;;;;;-0.61;60.47;99606.44;12595033;23;20338;-75
2022/01/12 01:04:19;;;;;;;27.33;13.15;;;;;;;-0.60;59.90;99610.69;12586638;23;20019;-75
2022/01/12 01:09:47;;;;;;;27.63;13.50;;;;;;;-0.69;60.23;99616.28;12576017;23;20025;-76
2022/01/12 01:15:13;;;;;;;24.63;13.95;;;;;;;-0.64;60.42;99613.63;12596348;23;20041;-75
2022/01/12 01:26:15;;;;;;;26.05;14.52;;;;;;;-0.63;60.59;99617.88;12599730;23;20303;-76
2022/01/12 01:31:36;;;;;;;25.40;14.50;;;;;;;-0.55;60.59;99599.06;12574729;23;20046;-75
2022/01/12 01:36:59;;;;;;;25.60;12.30;;;;;;;-0.52;60.60;99613.81;12595468;23;20089;-76
2022/01/12 01:42:28;;;;;;;26.65;14.75;;;;;;;-0.46;60.71;99617.41;12615049;23;20089;-75
2022/01/12 01:53:30;;;;;;;22.25;11.85;;;;;;;-0.54;59.91;99632.75;12594536;23;20018;-75
2022/01/12 01:58:53;;;;;;;22.30;12.48;;;;;;;-0.58;59.83;99632.91;12616171;23;20014;-75
2022/01/12 02:04:16;;;;;;;24.35;12.00;;;;;;;-0.59;60.17;99628.66;12575429;23;20022;-75
2022/01/12 02:09:37;;;;;;;25.52;12.70;;;;;;;-0.64;59.86;99632.84;12598256;23;20030;-76
2022/01/12 02:15:22;;;;;;;23.77;12.57;;;;;;;-0.61;60.16;99634.63;12604431;23;20022;-76
2022/01/12 02:43:39;;;;;;;24.00;11.95;;;;;;;-0.67;60.23;99606.38;12619892;23;20026;-75
2022/01/12 02:54:41;;;;;;;23.85;12.43;;;;;;;-0.64;60.10;99610.88;12601257;23;20457;-75
2022/01/12 03:00:07;;;;;;;22.65;11.68;;;;;;;-0.61;60.18;99617.41;12598170;23;20018;-75
2022/01/12 03:05:34;;;;;;;21.38;10.85;;;;;;;-0.64;60.26;99630.09;12586133;23;20477;-75
2022/01/12 03:10:58;;;;;;;25.63;12.98;;;;;;;-0.63;60.10;99625.34;12617968;23;20308;-75
2022/01/12 03:16:21;;;;;;;21.20;11.55;;;;;;;-0.62;60.14;99635.09;12578145;23;20026;-75
2022/01/12 03:21:42;;;;;;;19.73;10.53;;;;;;;-0.62;60.33;99619.41;12597367;23;20018;-75
2022/01/12 03:27:06;;;;;;;21.35;12.25;;;;;;;-0.64;60.18;99613.63;12586051;23;20336;-76
2022/01/12 03:32:43;;;;;;;20.92;11.05;;;;;;;-0.65;60.59;99608.63;12597116;23;20027;-75
2022/01/12 03:38:20;;;;;;;22.52;11.57;;;;;;;-0.70;60.18;99599.06;12620703;23;20014;-75
2022/01/12 03:43:41;;;;;;;21.30;10.55;;;;;;;-0.69;60.16;99617.03;12617458;23;20015;-76
2022/01/12 03:49:03;;;;;;;21.20;11.63;;;;;;;-0.64;60.14;99612.88;12596436;23;20025;-75
2022/01/12 03:54:24;;;;;;;20.83;11.20;;;;;;;-0.68;60.42;99612.28;12577087;23;20441;-75
2022/01/12 03:59:47;;;;;;;21.83;10.73;;;;;;;-0.74;59.91;99603.22;12577390;23;20074;-75
2022/01/12 04:10:32;;;;;;;22.38;10.57;;;;;;;-0.75;60.37;99634.63;12615763;23;20073;-76
2022/01/12 04:15:55;;;;;;;18.67;9.30;;;;;;;-0.72;60.00;99619.97;12615537;23;20029;-75
2022/01/12 04:21:23;;;;;;;18.58;10.07;;;;;;;-0.78;60.16;99621.84;12577215;23;20015;-76
2022/01/12 04:26:45;;;;;;;19.60;9.52;;;;;;;-0.71;60.09;99632.44;12575436;23;20029;-76
2022/01/12 04:32:06;;;;;;;18.25;9.30;;;;;;;-0.67;60.27;99630.28;12610131;23;20052;-76
2022/01/12 04:37:27;;;;;;;18.75;9.43;;;;;;;-0.63;59.79;99606.16;12573880;23;20034;-76
2022/01/12 04:42:49;;;;;;;18.58;9.98;;;;;;;-0.65;60.04;99597.66;12592981;23;20025;-76
2022/01/12 04:53:37;;;;;;;16.33;8.88;;;;;;;-0.68;59.88;99615.78;12592496;23;20026;-76
2022/01/12 04:58:58;;;;;;;19.27;8.75;;;;;;;-0.77;60.12;99624.13;12573701;23;20021;-76
2022/01/12 05:15:44;;;;;;;18.43;8.73;;;;;;;-0.70;60.45;99631.22;12583687;23;20023;-76
2022/01/12 05:21:05;;;;;;;17.13;8.98;;;;;;;-0.66;59.74;99649.00;12593415;23;20633;-76
2022/01/12 05:26:26;;;;;;;15.13;7.95;;;;;;;-0.65;60.03;99645.03;12595009;23;20018;-76
2022/01/12 05:31:48;;;;;;;14.75;8.25;;;;;;;-0.65;60.15;99649.78;12595740;23;20022;-76
2022/01/12 05:37:09;;;;;;;21.45;8.80;;;;;;;-0.64;59.92;99657.53;12595736;23;20334;-76
2022/01/12 05:42:32;;;;;;;13.90;7.55;;;;;;;-0.64;59.90;99657.53;12598531;23;20029;-77
2022/01/12 05:53:19;;;;;;;15.35;8.57;;;;;;;-0.64;60.26;99656.75;12599538;23;20022;-76
2022/01/12 05:58:44;;;;;;;14.00;8.40;;;;;;;-0.62;60.04;99665.28;12598286;23;20478;-76
2022/01/12 06:04:05;;;;;;;17.40;8.52;;;;;;;-0.62;59.97;99660.53;12611572;23;20021;-76
2022/01/12 06:09:27;;;;;;;15.60;8.20;;;;;;;-0.69;59.49;99660.16;12598685;23;20449;-77
2022/01/12 06:14:48;;;;;;;16.55;8.32;;;;;;;-0.76;60.21;99671.50;12578592;23;20464;-76
2022/01/12 06:20:10;;;;;;;14.88;7.55;;;;;;;-0.81;60.09;99689.38;12559323;23;20505;-76
2022/01/12 06:26:00;;;;;;;17.48;9.40;;;;;;;-0.81;59.88;99697.59;12584524;23;20337;-76
2022/01/12 06:31:26;;;;;;;19.30;9.68;;;;;;;-0.81;59.77;99686.63;12579135;23;20014;-76
2022/01/12 06:36:47;;;;;;;18.10;9.90;;;;;;;-0.79;60.39;99699.88;12618992;23;20026;-76
2022/01/12 06:42:08;;;;;;;17.77;9.52;;;;;;;-0.74;60.23;99710.19;12576390;23;20239;-76
2022/01/12 06:47:31;;;;;;;17.20;8.90;;;;;;;-0.65;60.31;99712.84;12558045;23;20553;-76
2022/01/12 06:52:52;;;;;;;17.88;8.43;;;;;;;-0.63;60.30;99707.66;12596599;23;20018;-76
2022/01/12 06:58:13;;;;;;;15.57;8.10;;;;;;;-0.59;59.72;99705.47;12578672;23;20014;-76
2022/01/12 07:03:34;;;;;;;13.80;7.78;;;;;;;-0.60;59.75;99714.94;12592680;23;20018;-76
2022/01/12 07:08:55;;;;;;;15.90;8.10;;;;;;;-0.54;59.72;99709.56;12597280;23;20066;-76
2022/01/12 07:14:30;;;;;;;16.27;9.32;;;;;;;-0.47;59.54;99731.91;12600862;23;20033;-76
2022/01/12 07:19:51;;;;;;;16.88;9.88;;;;;;;-0.37;59.88;99732.56;12597298;23;20023;-76
2022/01/12 07:25:12;;;;;;;17.23;9.77;;;;;;;-0.27;59.76;99719.50;12612872;23;20318;-76
2022/01/12 07:30:33;;;;;;;17.30;9.20;;;;;;;-0.09;59.27;99717.31;12578392;23;20019;-76
2022/01/12 07:35:54;;;;;;;14.73;8.20;;;;;;;-0.02;58.95;99735.38;12597517;23;20045;-76
2022/01/12 07:41:15;;;;;;;15.88;8.93;;;;;;;-0.13;58.67;99743.44;12617591;23;20014;-76
2022/01/12 07:46:36;;;;;;;13.70;8.35;;;;;;;-0.23;58.63;99736.53;12616679;23;20010;-76
2022/01/12 07:51:56;;;;;;;16.88;8.38;;;;;;;-0.30;58.88;99741.16;12597358;23;20014;-76
2022/01/12 07:57:17;;;;;;;13.48;7.30;;;;;;;-0.28;58.63;99731.72;12597525;23;20018;-76
2022/01/12 08:02:38;;;;;;;13.77;8.02;;;;;;;-0.52;58.58;99735.28;12616260;23;20018;-76
2022/01/12 08:08:00;;;;;;;13.73;8.60;;;;;;;-0.56;59.02;99717.50;12577686;23;20049;-75
2022/01/12 08:13:22;;;;;;;12.50;7.20;;;;;;;-0.43;59.07;99726.97;12556498;23;20022;-76
2022/01/12 08:18:44;;;;;;;15.63;9.98;;;;;;;-0.14;58.34;99719.97;12596504;23;20089;-76
2022/01/12 08:24:05;;;;;;;15.60;10.02;;;;;;;0.00;58.15;99727.44;12596179;23;20021;-76
2022/01/12 08:29:45;;;;;;;10.15;7.18;;;;;;;0.18;57.73;99718.97;12584669;23;20026;-76
2022/01/12 08:35:07;;;;;;;12.82;8.13;;;;;;;0.43;57.79;99728.59;12596775;23;20023;-76
2022/01/12 08:40:27;;;;;;;12.35;7.90;;;;;;;0.21;57.59;99734.50;12576197;23;20026;-76
2022/01/12 08:45:51;;;;;;;13.57;8.25;;;;;;;0.22;57.87;99727.78;12596649;23;20014;-76
2022/01/12 08:51:11;;;;;;;13.38;8.75;;;;;;;0.81;57.12;99730.34;12596407;23;20026;-76
2022/01/12 08:56:32;;;;;;;14.40;9.35;;;;;;;1.66;56.22;99735.56;12594999;23;20030;-76
2022/01/12 09:01:53;;;;;;;15.10;9.63;;;;;;;1.64;55.20;99731.78;12575859;23;20118;-76
2022/01/12 09:07:15;;;;;;;18.35;10.27;;;;;;;2.50;55.73;99727.19;12576138;23;20377;-76
2022/01/12 09:12:36;;;;;;;13.18;9.65;;;;;;;6.56;52.15;99753.94;12615645;23;20370;-77
2022/01/12 09:17:58;;;;;;;14.70;9.93;;;;;;;6.15;48.79;99742.19;12615978;23;20030;-76
2022/01/12 09:23:19;;;;;;;15.55;10.07;;;;;;;5.69;47.45;99752.06;12595311;23;20081;-76
2022/01/12 09:28:40;;;;;;;17.27;10.10;;;;;;;5.60;50.33;99738.53;12597295;23;20034;-76
2022/01/12 09:34:04;;;;;;;16.55;8.90;;;;;;;4.67;49.57;99755.78;12595023;23;20038;-77
2022/01/12 09:39:25;;;;;;;10.88;8.35;;;;;;;3.50;50.55;99750.97;12615202;23;20220;-76
2022/01/12 09:44:48;;;;;;;14.90;8.40;;;;;;;2.82;52.55;99755.47;12615300;23;20022;-76
2022/01/12 09:50:10;;;;;;;13.73;8.02;;;;;;;2.69;52.92;99750.38;12571312;23;20103;-76
2022/01/12 09:55:31;;;;;;;13.20;8.43;;;;;;;2.51;52.80;99745.25;12614792;23;20023;-76
2022/01/12 10:00:56;;;;;;;13.43;8.52;;;;;;;2.58;53.24;99745.53;12615522;23;20026;-76
2022/01/12 10:06:26;;;;;;;12.27;7.50;;;;;;;2.82;52.93;99738.91;12580759;23;20018;-76
2022/01/12 10:11:54;;;;;;;11.52;7.70;;;;;;;3.05;52.76;99742.53;12616168;23;20042;-77
2022/01/12 10:17:29;;;;;;;13.10;8.50;;;;;;;3.31;52.25;99726.56;12575804;23;20025;-76
2022/01/12 10:23:02;;;;;;;13.13;8.55;;;;;;;3.52;52.00;99745.69;12574846;23;20024;-77
2022/01/12 10:28:23;;;;;;;12.52;7.88;;;;;;;3.43;51.71;99749.44;12578844;23;20023;-76
2022/01/12 10:33:45;;;;;;;16.77;9.68;;;;;;;3.16;51.83;99759.13;12578665;23;20464;-76
2022/01/12 10:39:10;;;;;;;14.95;8.68;;;;;;;3.06;52.23;99744.78;12578741;23;20450;-76
2022/01/12 10:44:45;;;;;;;11.88;7.20;;;;;;;3.03;52.12;99756.06;12599080;23;20045;-77
2022/01/12 10:50:08;;;;;;;12.32;7.13;;;;;;;3.46;52.21;99745.66;12578223;23;20019;-77
2022/01/12 10:55:28;;;;;;;9.40;6.60;;;;;;;3.71;52.00;99753.00;12577583;23;20337;-77
2022/01/12 11:00:51;;;;;;;10.57;6.63;;;;;;;3.76;51.43;99750.75;12596242;23;20042;-78
2022/01/12 11:06:12;;;;;;;10.57;6.38;;;;;;;4.47;51.27;99734.69;12595990;23;20108;-78
2022/01/12 11:11:34;;;;;;;10.45;6.25;;;;;;;5.03;50.42;99735.28;12595717;23;20018;-78
2022/01/12 11:16:55;;;;;;;10.38;6.68;;;;;;;4.93;49.62;99730.56;12594765;23;20034;-78
2022/01/12 11:22:40;;;;;;;9.32;6.35;;;;;;;5.18;49.34;99730.19;12594355;23;20014;-76
2022/01/12 11:28:07;;;;;;;8.82;4.97;;;;;;;6.19;48.91;99734.34;12570928;23;20026;-81
2022/01/12 11:33:31;;;;;;;8.30;5.82;;;;;;;6.55;48.96;99721.91;12619775;23;20014;-80
2022/01/12 11:39:05;;;;;;;9.10;5.88;;;;;;;7.64;48.10;99723.63;12615634;23;20026;-80
2022/01/12 11:44:29;;;;;;;;;;;;;;;7.86;43.50;99716.97;12595172;23;20029;-79
2022/01/12 11:49:52;;;;;;;6.93;5.43;;;;;;;7.61;45.04;99703.16;12596552;23;19972;-79
2022/01/12 11:55:17;;;;;;;8.25;5.70;;;;;;;7.99;45.18;99694.75;12616625;23;20046;-79
2022/01/12 12:00:39;;;;;;;8.32;5.65;;;;;;;7.72;44.37;99685.56;12595252;23;20025;-79
2022/01/12 12:06:01;;;;;;;9.57;5.20;;;;;;;7.03;44.79;99678.69;12601277;23;20529;-80
2022/01/12 12:11:24;;;;;;;11.80;6.03;;;;;;;6.63;45.29;99677.66;12614374;23;20046;-79
2022/01/12 12:16:45;;;;;;;7.18;5.07;;;;;;;6.49;45.05;99676.06;12595240;23;20022;-79
2022/01/12 12:22:17;;;;;;;8.43;5.25;;;;;;;6.48;44.76;99669.03;12594650;23;20021;-80
2022/01/12 12:27:40;;;;;;;10.25;6.05;;;;;;;6.07;45.01;99664.38;12574675;23;20038;-79
2022/01/12 12:33:11;;;;;;;10.88;6.63;;;;;;;5.75;45.89;99658.56;12615871;23;20015;-79
2022/01/12 12:38:32;;;;;;;8.77;6.38;;;;;;;5.57;46.11;99659.22;12644405;23;20020;-77
2022/01/12 12:43:53;;;;;;;9.05;6.22;;;;;;;5.71;45.81;99655.34;12722812;23;20318;-82
2022/01/12 12:49:15;;;;;;;9.40;6.63;;;;;;;5.73;45.94;99647.25;12843267;23;20001;-80
2022/01/12 12:54:41;;;;;;;9.30;6.38;;;;;;;5.52;45.98;99654.47;12802135;23;20005;-81
2022/01/12 13:00:11;;;;;;;11.15;6.32;;;;;;;5.32;46.36;99650.81;12778166;23;20021;-81
2022/01/12 13:05:35;;;;;;;13.32;6.55;;;;;;;5.23;46.65;99653.16;12806926;23;20095;-79
2022/01/12 13:10:56;;;;;;;11.63;7.43;;;;;;;5.13;46.89;99650.69;12779963;23;20095;-79
2022/01/12 13:16:17;;;;;;;12.38;7.68;;;;;;;5.11;46.95;99655.22;12763583;23;20103;-77
2022/01/12 13:21:41;;;;;;;10.60;6.78;;;;;;;5.02;46.78;99656.28;12735917;23;20041;-77
2022/01/12 13:27:02;;;;;;;11.43;6.20;;;;;;;4.80;46.88;99664.66;12776674;23;20069;-77
2022/01/12 13:32:23;;;;;;;10.00;6.25;;;;;;;4.52;47.26;99667.53;12755109;23;20144;-77
2022/01/12 13:37:52;;;;;;;8.80;5.80;;;;;;;4.29;47.29;99675.13;12735645;23;20025;-77
2022/01/12 13:43:33;;;;;;;9.15;5.60;;;;;;;4.10;48.24;99677.66;12759073;23;20025;-77
2022/01/12 13:49:09;;;;;;;10.00;6.05;;;;;;;4.07;48.38;99689.75;12777102;23;20514;-77
2022/01/12 13:54:36;;;;;;;8.95;5.63;;;;;;;4.04;48.31;99701.78;12760192;23;20088;-78
2022/01/12 13:59:57;;;;;;;10.77;6.00;;;;;;;3.90;48.97;99711.09;12757666;23;20047;-75
2022/01/12 14:05:20;;;;;;;9.70;5.80;;;;;;;3.84;49.05;99704.81;12746503;23;20040;-75
2022/01/12 14:10:45;;;;;;;8.80;6.10;;;;;;;3.73;49.75;99705.56;12740194;23;20509;-75
2022/01/12 14:16:07;;;;;;;11.57;6.82;;;;;;;3.62;49.85;99711.81;12761915;23;20028;-75
2022/01/12 14:21:28;;;;;;;10.63;6.95;;;;;;;3.53;49.67;99703.03;12759218;23;20324;-75
2022/01/12 14:26:49;;;;;;;12.73;6.72;;;;;;;3.41;50.50;99703.00;12780777;23;20017;-75
2022/01/12 14:32:11;;;;;;;11.25;7.53;;;;;;;3.08;50.29;99681.56;12739563;23;20013;-75
2022/01/12 14:37:32;;;;;;;11.80;7.30;;;;;;;2.88;51.10;99701.06;12741041;23;20025;-75
2022/01/12 14:42:55;;;;;;;12.02;7.72;;;;;;;2.76;51.20;99703.03;12760443;23;20017;-75
2022/01/12 14:48:17;;;;;;;12.90;8.65;;;;;;;2.71;51.38;99692.72;12740157;23;20021;-75
2022/01/12 14:53:39;;;;;;;12.77;7.82;;;;;;;2.76;51.19;99680.22;12760089;23;20332;-75
2022/01/12 14:59:00;;;;;;;15.65;9.07;;;;;;;2.69;51.59;99672.41;12778523;23;20013;-75
2022/01/12 15:04:27;;;;;;;12.55;8.40;;;;;;;2.56;52.26;99667.34;12792376;23;20025;-74
2022/01/12 15:09:48;;;;;;;16.45;9.38;;;;;;;2.39;53.20;99672.75;12737683;23;20076;-75
2022/01/12 15:15:11;;;;;;;15.55;9.55;;;;;;;2.38;52.41;99685.03;12736164;23;20100;-75
2022/01/12 15:20:32;;;;;;;13.93;9.43;;;;;;;2.31;52.96;99688.22;12739144;23;20019;-74
2022/01/12 15:25:55;;;;;;;14.63;9.00;;;;;;;2.18;52.90;99674.88;12779139;23;20465;-75
2022/01/12 15:31:16;;;;;;;16.47;9.77;;;;;;;2.09;53.83;99677.06;12780747;23;20017;-75
2022/01/12 15:36:37;;;;;;;16.02;8.98;;;;;;;1.86;54.13;99676.91;12759501;23;20075;-76
2022/01/12 15:41:59;;;;;;;15.27;9.45;;;;;;;1.72;54.26;99686.78;12759415;23;20020;-75
2022/01/12 15:47:20;;;;;;;12.52;8.18;;;;;;;1.71;54.96;99671.53;12759770;23;20048;-75
2022/01/12 15:52:40;;;;;;;12.90;8.48;;;;;;;1.73;55.26;99671.03;12759075;23;20072;-75
2022/01/12 15:58:01;;;;;;;14.50;8.13;;;;;;;1.62;54.86;99677.19;12738695;23;20444;-75
2022/01/12 16:03:22;;;;;;;13.73;8.60;;;;;;;1.39;55.21;99661.72;12755363;23;20017;-75
2022/01/12 16:08:43;;;;;;;14.02;9.55;;;;;;;1.22;55.48;99686.31;12778548;23;20067;-75
2022/01/12 16:14:04;;;;;;;17.10;9.77;;;;;;;1.08;55.72;99687.94;12779322;23;20020;-75
2022/01/12 16:19:25;;;;;;;15.85;9.70;;;;;;;1.02;55.91;99700.09;12737859;23;20029;-75
2022/01/12 16:24:48;;;;;;;17.42;10.40;;;;;;;1.03;57.06;99696.13;12757398;23;20459;-74
2022/01/12 16:30:14;;;;;;;16.98;10.73;;;;;;;1.14;57.29;99699.75;12740469;23;20013;-75
2022/01/12 16:35:35;;;;;;;16.07;9.90;;;;;;;1.21;56.61;99698.56;12757607;23;20447;-74
2022/01/12 16:40:58;;;;;;;15.32;9.45;;;;;;;1.10;56.51;99701.97;12736895;23;20021;-74
2022/01/12 16:46:22;;;;;;;17.55;9.93;;;;;;;1.17;57.31;99702.78;12757082;23;20012;-74
2022/01/12 16:51:43;;;;;;;16.58;10.20;;;;;;;1.27;56.82;99715.16;12758678;23;20017;-74
2022/01/12 16:57:04;;;;;;;17.42;9.93;;;;;;;1.35;57.44;99706.00;12717059;23;20454;-74
2022/01/12 17:02:25;;;;;;;17.77;9.93;;;;;;;1.38;57.82;99699.50;12777600;23;20472;-76
2022/01/12 17:07:46;;;;;;;15.70;9.60;;;;;;;1.39;57.82;99705.75;12757513;23;20012;-75
2022/01/12 17:13:07;;;;;;;19.65;10.55;;;;;;;1.23;57.30;99715.34;12778201;23;20024;-77
2022/01/12 17:18:54;;;;;;;15.55;10.18;;;;;;;1.08;57.84;99714.69;12764998;23;20013;-75
2022/01/12 17:24:20;;;;;;;13.52;8.35;;;;;;;0.89;57.76;99708.72;12758237;23;20095;-75
2022/01/12 17:29:42;;;;;;;18.08;10.13;;;;;;;0.79;58.65;99715.59;12757234;23;20327;-75
2022/01/12 17:35:06;;;;;;;21.88;12.02;;;;;;;0.71;58.91;99715.22;12757847;23;20023;-75
2022/01/12 17:40:27;;;;;;;19.10;10.45;;;;;;;0.79;59.50;99715.59;12749380;23;20017;-76
2022/01/12 17:45:51;;;;;;;15.63;10.20;;;;;;;0.98;59.31;99724.31;12761380;23;20017;-76
2022/01/12 17:51:12;;;;;;;16.83;9.83;;;;;;;1.12;59.71;99720.72;12741266;23;20106;-76
2022/01/12 17:56:33;;;;;;;16.95;10.88;;;;;;;1.22;59.41;99718.59;12740956;23;20021;-76
2022/01/12 18:01:54;;;;;;;18.70;10.30;;;;;;;1.30;59.03;99742.44;12765907;23;20380;-80
2022/01/12 18:07:15;;;;;;;18.10;10.40;;;;;;;1.41;59.00;99736.31;12742671;23;20017;-80
2022/01/12 18:12:36;;;;;;;21.00;11.10;;;;;;;1.44;58.79;99752.59;12781318;23;20088;-81
2022/01/12 18:18:00;;;;;;;23.42;12.50;;;;;;;1.47;59.69;99747.38;12745324;23;20021;-81
2022/01/12 18:23:21;;;;;;;19.35;12.10;;;;;;;1.54;59.17;99746.94;12768835;23;20013;-81
2022/01/12 18:28:41;;;;;;;21.52;11.35;;;;;;;1.57;59.12;99734.97;12776901;23;20044;-82
2022/01/12 18:34:02;;;;;;;18.05;11.60;;;;;;;1.57;59.43;99737.72;12758047;23;20075;-82
2022/01/12 18:39:29;;;;;;;20.25;11.90;;;;;;;1.54;59.56;99752.44;12796340;23;20044;-82
2022/01/12 18:44:51;;;;;;;19.55;11.32;;;;;;;1.62;59.47;99737.00;12818201;23;20021;-81
2022/01/12 18:50:17;;;;;;;21.27;12.10;;;;;;;1.63;59.67;99728.25;12762461;23;20059;-77
2022/01/12 18:55:39;;;;;;;19.70;12.25;;;;;;;1.66;59.13;99743.06;12740592;23;20025;-76
2022/01/12 19:01:00;;;;;;;19.50;12.38;;;;;;;1.66;59.91;99730.06;12760240;23;20017;-77
2022/01/12 19:06:42;;;;;;;18.60;11.20;;;;;;;1.71;59.66;99725.84;12764008;23;20013;-77
2022/01/12 19:12:04;;;;;;;22.67;13.30;;;;;;;1.68;59.93;99721.31;12720073;23;20024;-77
2022/01/12 19:17:25;;;;;;;21.58;13.63;;;;;;;1.70;59.85;99724.31;12759122;23;20017;-76
2022/01/12 19:22:46;;;;;;;24.42;13.75;;;;;;;1.64;60.48;99745.53;12779494;23;20023;-76
2022/01/12 19:28:06;;;;;;;23.25;13.25;;;;;;;1.69;60.32;99750.34;12759825;23;20092;-77
2022/01/12 19:33:27;;;;;;;20.40;12.77;;;;;;;1.77;60.28;99758.94;12759210;23;20017;-77
2022/01/12 19:38:48;;;;;;;20.90;12.75;;;;;;;1.86;60.31;99764.28;12738453;23;20436;-77
2022/01/12 19:44:09;;;;;;;20.65;12.63;;;;;;;1.88;60.35;99768.06;12759209;23;20021;-77
2022/01/12 19:49:30;;;;;;;20.80;14.00;;;;;;;1.93;60.09;99759.09;12759481;23;20028;-77
2022/01/12 19:54:54;;;;;;;26.27;14.65;;;;;;;1.95;60.08;99756.59;12738735;23;20063;-77
2022/01/12 20:00:26;;;;;;;20.02;12.55;;;;;;;1.90;60.26;99759.31;12779089;23;20100;-77
2022/01/12 20:05:48;;;;;;;20.77;12.93;;;;;;;1.96;60.51;99751.84;12758926;23;20385;-77
2022/01/12 20:11:10;;;;;;;25.30;12.95;;;;;;;1.94;60.47;99760.63;12738515;23;20040;-77
2022/01/12 20:16:42;;;;;;;20.35;12.45;;;;;;;2.01;60.29;99765.66;12738166;23;20066;-78
2022/01/12 20:22:44;;;;;;;22.95;13.52;;;;;;;1.95;60.61;99756.59;12761920;23;20017;-76
2022/01/12 20:28:06;;;;;;;20.90;12.93;;;;;;;1.93;60.82;99772.09;12756936;23;20021;-77
2022/01/12 20:33:29;;;;;;;23.70;13.55;;;;;;;1.89;60.98;99760.56;12777638;23;20505;-77
2022/01/12 20:38:50;;;;;;;20.55;12.63;;;;;;;1.85;61.11;99777.31;12735906;23;20096;-77
2022/01/12 20:44:10;;;;;;;21.80;13.18;;;;;;;1.87;61.25;99761.03;12755566;23;20017;-77
2022/01/12 20:49:33;;;;;;;21.92;12.93;;;;;;;1.89;60.84;99768.81;12755224;23;20021;-77
2022/01/12 20:54:54;;;;;;;22.92;12.93;;;;;;;1.88;61.01;99770.81;12776931;23;20013;-77
2022/01/12 21:00:16;;;;;;;21.45;11.77;;;;;;;1.83;61.62;99774.25;12754967;23;20212;-77
2022/01/12 21:05:37;;;;;;;23.45;12.45;;;;;;;1.78;61.18;99774.97;12722413;23;20083;-76
2022/01/12 21:10:58;;;;;;;25.40;13.85;;;;;;;1.79;61.29;99775.72;12755098;23;20013;-77
2022/01/12 21:16:19;;;;;;;23.63;13.75;;;;;;;1.71;61.48;99786.41;12775170;23;20017;-76
2022/01/12 21:21:40;;;;;;;23.23;13.15;;;;;;;1.70;61.98;99793.91;12754977;23;20012;-76
2022/01/12 21:27:02;;;;;;;21.83;14.38;;;;;;;1.70;61.68;99790.41;12735188;23;20017;-77
2022/01/12 21:32:23;;;;;;;23.35;12.90;;;;;;;1.63;61.88;99780.56;12778151;23;20402;-77
2022/01/12 21:37:45;;;;;;;20.05;12.15;;;;;;;1.55;62.13;99776.00;12757600;23;20075;-77
2022/01/12 21:43:06;;;;;;;22.85;13.07;;;;;;;1.45;62.49;99780.91;12737463;23;20081;-77
2022/01/12 21:48:27;;;;;;;22.52;13.90;;;;;;;1.43;62.74;99773.09;12736797;23;20017;-77
2022/01/12 21:53:48;;;;;;;21.23;12.45;;;;;;;1.46;62.87;99784.41;12756756;23;20020;-77
2022/01/12 21:59:10;;;;;;;22.75;13.77;;;;;;;1.52;62.82;99782.44;12778374;23;20021;-77
2022/01/12 22:04:31;;;;;;;20.52;12.98;;;;;;;1.52;62.47;99791.47;12749386;23;20020;-77
2022/01/12 22:09:52;;;;;;;22.95;13.60;;;;;;;1.50;62.85;99788.44;12736970;23;20101;-76
2022/01/12 22:15:12;;;;;;;18.58;11.95;;;;;;;1.60;62.94;99789.06;12736628;23;20377;-77
2022/01/12 22:20:33;;;;;;;22.23;12.48;;;;;;;1.64;62.48;99792.34;12756494;23;20044;-77
2022/01/12 22:25:54;;;;;;;22.23;13.13;;;;;;;1.57;62.84;99790.03;12760700;23;20021;-77
2022/01/12 22:31:15;;;;;;;20.77;12.95;;;;;;;1.53;63.03;99787.47;12760976;23;20318;-77
2022/01/12 22:36:36;;;;;;;22.65;12.52;;;;;;;1.46;62.99;99798.91;12760309;23;20084;-77
2022/01/12 22:41:57;;;;;;;20.75;11.98;;;;;;;1.49;63.35;99797.19;12743138;23;20428;-77
2022/01/12 22:47:18;;;;;;;22.77;13.43;;;;;;;1.49;63.47;99786.19;12760197;23;20087;-76
2022/01/12 22:52:38;;;;;;;22.63;13.25;;;;;;;1.42;62.95;99793.59;12760200;23;20490;-76
2022/01/12 23:03:32;;;;;;;20.15;12.38;;;;;;;1.27;63.92;99801.19;12762803;23;20071;-76
2022/01/12 23:08:53;;;;;;;22.00;12.95;;;;;;;1.20;63.46;99790.59;12740729;23;20043;-76
2022/01/12 23:14:15;;;;;;;21.85;13.23;;;;;;;1.04;64.25;99791.13;12759877;23;20020;-76
2022/01/12 23:19:36;;;;;;;19.40;12.50;;;;;;;0.88;64.29;99786.19;12760213;23;20289;-77
2022/01/12 23:24:57;;;;;;;24.80;13.90;;;;;;;0.78;64.90;99783.56;12759187;23;20060;-76
2022/01/12 23:30:18;;;;;;;20.42;13.15;;;;;;;0.64;64.61;99792.59;12739525;23;20063;-76
2022/01/12 23:54:54;;;;;;;25.02;13.23;;;;;;;0.31;66.02;99811.34;12762607;23;20440;-76
2022/01/12 23:58:21;;;;;;;23.75;13.05;;;;;;;0.27;66.16;99804.00;12786126;23;20340;-76
